Impacts METAR Board INFO
IDs:

KDCA - Washington/National, VA, US

Updated at: 0858 UTC 18 Dec 2017
Potential Impact None Slight Moderate High
Time17/20Z 17/21Z 17/22Z 17/23Z 18/00Z 18/01Z 18/02Z 18/03Z 18/04Z 18/05Z 18/06Z 18/07Z 18/08Z
VIS10 10 10 10 10 10 10 10 10 10 10 10 10
CIG120 110 120 100 85 100 75 65 60 60 60 60 55
CoverOVCOVCOVCOVCOVCOVCOVCOVCOVCOVCOVCOVCOVC
FltCatVFRVFRVFRVFRVFRVFRVFRVFRVFRVFRVFRVFRVFR
WX--------------------------
WDir24017016016015018019020000140160180
WSpd3 4 3 5 3 7 3 5 0 0 3 3 3
WGst-- -- -- -- -- -- -- -- -- -- -- -- --
Raw hourly METARs
KDCA 171952Z 24003KT 10SM BKN120 OVC250 10/00 A3020 RMK AO2 SLP228 T01000000
KDCA 172052Z 17004KT 10SM BKN110 OVC250 08/02 A3018 RMK AO2 SLP219 T00830017 56018
KDCA 172152Z 16003KT 10SM OVC120 08/M01 A3020 RMK AO2 SLP225 T00831011
KDCA 172252Z 16005KT 10SM BKN100 OVC120 08/00 A3022 RMK AO2 SLP233 T00780000
KDCA 172352Z 15003KT 10SM OVC085 08/M01 A3020 RMK AO2 SLP227 T00781006 10100 20067 50008
KDCA 180052Z 18007KT 10SM SCT075 OVC100 08/00 A3019 RMK AO2 SLP223 T00780000
KDCA 180152Z 19003KT 10SM BKN075 OVC085 08/00 A3018 RMK AO2 SLP218 T00780000
KDCA 180252Z 20005KT 10SM OVC065 07/01 A3017 RMK AO2 SLP216 T00720011 56011
KDCA 180352Z 00000KT 10SM OVC060 07/01 A3017 RMK AO2 SLP214 T00720011
KDCA 180452Z 00000KT 10SM OVC060 07/01 A3016 RMK AO2 SLP214 T00720011 401001011
KDCA 180552Z 14003KT 10SM OVC060 06/02 A3014 RMK AO2 SLP205 T00560017 10083 20056 58011
KDCA 180652Z 16003KT 10SM OVC060 06/02 A3013 RMK AO2 SLP201 T00560017
KDCA 180752Z 18003KT 10SM OVC055 06/02 A3013 RMK AO2 SLP201 T00560017